TimeCST,TemperatureF,Dew PointF,Humidity,Sea Level PressureIn,VisibilityMPH,Wind Direction,Wind SpeedMPH,Gust SpeedMPH,PrecipitationIn,Events,Conditions,WindDirDegrees,DateUTC
12:15 AM,27.0,25.7,95,30.40,10.0,Calm,Calm,-,N/A,,Clear,0,2013-12-27 06:15:00
12:35 AM,29.8,25.7,85,30.40,10.0,Calm,Calm,-,N/A,,Clear,0,2013-12-27 06:35:00
12:55 AM,31.6,25.7,79,30.41,10.0,Calm,Calm,-,N/A,,Clear,0,2013-12-27 06:55:00
1:15 AM,29.1,24.6,83,30.41,10.0,Calm,Calm,-,N/A,,Clear,0,2013-12-27 07:15:00
1:35 AM,30.4,25.2,81,30.42,10.0,Calm,Calm,-,N/A,,Clear,0,2013-12-27 07:35:00
1:55 AM,27.7,24.3,87,30.40,10.0,SSE,5.8,-,N/A,,Clear,160,2013-12-27 07:55:00
2:15 AM,27.1,25.5,94,30.40,10.0,South,4.6,-,N/A,,Clear,170,2013-12-27 08:15:00
2:35 AM,26.4,24.8,94,30.40,10.0,South,4.6,-,N/A,,Clear,170,2013-12-27 08:35:00
2:55 AM,26.2,24.3,92,30.40,10.0,Calm,Calm,-,N/A,,Clear,0,2013-12-27 08:55:00
3:15 AM,29.1,26.6,90,30.40,10.0,Calm,Calm,-,N/A,,Clear,0,2013-12-27 09:15:00
3:35 AM,27.1,24.8,91,30.39,10.0,Calm,Calm,-,N/A,,Clear,0,2013-12-27 09:35:00
3:55 AM,27.1,26.4,97,30.39,10.0,Calm,Calm,-,N/A,,Clear,0,2013-12-27 09:55:00
4:15 AM,25.9,25.5,99,30.39,10.0,Calm,Calm,-,N/A,,Clear,0,2013-12-27 10:15:00
4:35 AM,26.4,26.1,99,30.39,7.0,South,3.5,-,N/A,,Clear,170,2013-12-27 10:35:00
4:55 AM,25.9,25.3,98,30.39,10.0,South,3.5,-,N/A,,Clear,180,2013-12-27 10:55:00
5:15 AM,25.5,24.8,97,30.40,10.0,Calm,Calm,-,N/A,,Clear,0,2013-12-27 11:15:00
5:35 AM,27.5,27.0,98,30.40,7.0,Calm,Calm,-,N/A,,Clear,0,2013-12-27 11:35:00
5:55 AM,26.1,25.5,98,30.40,7.0,South,3.5,-,N/A,,Clear,190,2013-12-27 11:55:00
6:15 AM,26.2,25.7,98,30.41,7.0,South,4.6,-,N/A,,Clear,190,2013-12-27 12:15:00
6:35 AM,28.0,27.1,96,30.41,10.0,SSW,4.6,-,N/A,,Clear,200,2013-12-27 12:35:00
6:55 AM,27.7,26.2,94,30.42,10.0,SSW,5.8,-,N/A,,Clear,210,2013-12-27 12:55:00
7:15 AM,27.1,25.5,94,30.43,10.0,SW,5.8,-,N/A,,Clear,220,2013-12-27 13:15:00
7:35 AM,28.8,26.6,92,30.43,10.0,SW,6.9,-,N/A,,Clear,220,2013-12-27 13:35:00
7:55 AM,31.6,27.5,85,30.43,10.0,SSW,5.8,-,N/A,,Clear,210,2013-12-27 13:55:00
8:15 AM,33.1,28.2,82,30.43,10.0,SW,6.9,-,N/A,,Clear,220,2013-12-27 14:15:00
8:35 AM,34.7,29.5,81,30.44,10.0,SW,6.9,-,N/A,,Clear,220,2013-12-27 14:35:00
8:55 AM,36.5,29.7,76,30.44,10.0,SSW,6.9,-,N/A,,Clear,210,2013-12-27 14:55:00
9:15 AM,38.3,30.7,74,30.45,10.0,SW,6.9,-,N/A,,Clear,220,2013-12-27 15:15:00
9:35 AM,39.9,30.7,70,30.45,10.0,SW,8.1,-,N/A,,Clear,220,2013-12-27 15:35:00
9:55 AM,41.4,31.3,67,30.46,10.0,SW,8.1,-,N/A,,Clear,220,2013-12-27 15:55:00
10:15 AM,43.7,32.0,63,30.45,10.0,SW,5.8,-,N/A,,Clear,220,2013-12-27 16:15:00
10:35 AM,45.3,32.0,60,30.45,10.0,SW,5.8,-,N/A,,Clear,220,2013-12-27 16:35:00
10:55 AM,46.6,32.2,57,30.45,10.0,WSW,9.2,-,N/A,,Clear,250,2013-12-27 16:55:00
11:15 AM,47.7,32.0,55,30.44,10.0,SW,9.2,-,N/A,,Clear,220,2013-12-27 17:15:00
11:35 AM,48.7,32.5,54,30.42,10.0,WSW,8.1,-,N/A,,Clear,240,2013-12-27 17:35:00
11:55 AM,50.4,32.2,50,30.42,10.0,SSW,6.9,-,N/A,,Clear,210,2013-12-27 17:55:00
12:15 PM,51.1,32.2,48,30.41,10.0,South,4.6,-,N/A,,Clear,180,2013-12-27 18:15:00
12:35 PM,51.4,32.0,47,30.40,10.0,WSW,3.5,-,N/A,,Clear,240,2013-12-27 18:35:00
12:55 PM,52.5,32.4,46,30.38,10.0,SW,8.1,-,N/A,,Clear,230,2013-12-27 18:55:00
1:15 PM,53.4,31.8,44,30.38,10.0,SW,5.8,-,N/A,,Clear,220,2013-12-27 19:15:00
1:35 PM,53.4,31.6,44,30.37,10.0,Calm,Calm,-,N/A,,Clear,0,2013-12-27 19:35:00
1:55 PM,54.0,31.5,42,30.36,10.0,SW,6.9,-,N/A,,Clear,230,2013-12-27 19:55:00
2:15 PM,54.5,31.5,42,30.35,10.0,SW,11.5,-,N/A,,Clear,230,2013-12-27 20:15:00
2:35 PM,54.5,32.7,44,30.35,10.0,SW,10.4,-,N/A,,Clear,220,2013-12-27 20:35:00
2:55 PM,54.5,32.2,43,30.35,10.0,SW,8.1,-,N/A,,Clear,230,2013-12-27 20:55:00
3:15 PM,54.5,32.2,43,30.35,10.0,SSW,6.9,-,N/A,,Clear,200,2013-12-27 21:15:00
3:35 PM,53.8,32.0,44,30.35,10.0,SSW,9.2,-,N/A,,Clear,200,2013-12-27 21:35:00
3:55 PM,52.7,32.0,45,30.35,10.0,SSW,6.9,-,N/A,,Clear,210,2013-12-27 21:55:00
4:15 PM,51.3,32.0,48,30.35,10.0,SSW,5.8,-,N/A,,Clear,200,2013-12-27 22:15:00
4:35 PM,48.7,32.0,52,30.35,10.0,SW,4.6,-,N/A,,Clear,220,2013-12-27 22:35:00
4:55 PM,46.6,31.8,56,30.36,10.0,SSW,4.6,-,N/A,,Clear,200,2013-12-27 22:55:00
5:15 PM,46.6,31.8,56,30.36,10.0,South,3.5,-,N/A,,Clear,190,2013-12-27 23:15:00
5:35 PM,43.7,31.3,62,30.36,10.0,SSW,4.6,-,N/A,,Clear,200,2013-12-27 23:35:00
5:55 PM,43.7,31.1,61,30.37,10.0,SSW,3.5,-,N/A,,Clear,200,2013-12-27 23:55:00
6:15 PM,43.2,30.9,62,30.38,10.0,SSW,4.6,-,N/A,,Clear,210,2013-12-28 00:15:00
6:35 PM,41.5,30.4,65,30.38,10.0,SW,5.8,-,N/A,,Clear,220,2013-12-28 00:35:00
6:55 PM,41.5,30.6,65,30.38,10.0,SSW,4.6,-,N/A,,Clear,200,2013-12-28 00:55:00
7:15 PM,38.5,29.5,70,30.39,10.0,SSW,3.5,-,N/A,,Clear,210,2013-12-28 01:15:00
7:35 PM,39.4,30.2,70,30.39,10.0,SSW,4.6,-,N/A,,Clear,210,2013-12-28 01:35:00
7:55 PM,36.1,29.8,78,30.37,10.0,South,3.5,-,N/A,,Clear,190,2013-12-28 01:55:00
8:15 PM,34.5,29.8,83,30.36,10.0,South,4.6,-,N/A,,Clear,180,2013-12-28 02:15:00
8:35 PM,34.0,29.3,83,30.36,10.0,South,4.6,-,N/A,,Clear,190,2013-12-28 02:35:00
8:55 PM,37.0,29.5,74,30.36,10.0,SSW,6.9,-,N/A,,Clear,210,2013-12-28 02:55:00
9:15 PM,36.9,29.5,75,30.36,10.0,SSW,5.8,-,N/A,,Clear,210,2013-12-28 03:15:00
9:35 PM,36.9,29.3,74,30.36,10.0,SSW,5.8,-,N/A,,Clear,210,2013-12-28 03:35:00
9:55 PM,37.4,29.3,73,30.36,10.0,SSW,5.8,-,N/A,,Clear,200,2013-12-28 03:55:00
10:15 PM,38.1,29.3,71,30.36,10.0,SSW,5.8,-,N/A,,Clear,200,2013-12-28 04:15:00
10:35 PM,38.5,29.3,70,30.36,10.0,SSW,5.8,-,N/A,,Clear,200,2013-12-28 04:35:00
10:55 PM,36.7,28.6,72,30.36,10.0,SSW,5.8,-,N/A,,Clear,200,2013-12-28 04:55:00
11:15 PM,36.7,28.8,73,30.35,10.0,SSW,5.8,-,N/A,,Clear,200,2013-12-28 05:15:00
11:35 PM,36.9,28.9,73,30.35,10.0,SSW,4.6,-,N/A,,Clear,200,2013-12-28 05:35:00
11:55 PM,36.5,28.9,74,30.34,10.0,South,3.5,-,N/A,,Clear,190,2013-12-28 05:55:00